createdAt,value
2022-09-15T00:00:09.984Z,21.70
2022-09-15T00:02:38.746Z,21.70
2022-09-15T00:05:05.851Z,21.60
2022-09-15T00:07:32.728Z,21.60
2022-09-15T00:10:00.111Z,21.60
2022-09-15T00:12:30.295Z,21.60
2022-09-15T00:14:57.302Z,21.70
2022-09-15T00:17:24.240Z,21.70
2022-09-15T00:19:51.101Z,21.70
2022-09-15T00:22:20.173Z,21.60
2022-09-15T00:24:49.477Z,21.60
2022-09-15T00:27:16.966Z,21.50
2022-09-15T00:29:44.677Z,21.40
2022-09-15T00:32:11.713Z,21.40
2022-09-15T00:34:38.936Z,21.40
2022-09-15T00:37:05.848Z,21.40
2022-09-15T00:39:32.796Z,21.40
2022-09-15T00:41:59.675Z,21.40
2022-09-15T00:44:35.672Z,21.30
2022-09-15T00:47:18.619Z,21.20
2022-09-15T00:49:46.174Z,21.30
2022-09-15T00:52:17.381Z,21.20
2022-09-15T00:54:50.747Z,21.20
2022-09-15T00:57:40.460Z,21.20
2022-09-15T01:00:09.265Z,21.10
2022-09-15T01:02:36.581Z,21.10
2022-09-15T01:05:05.647Z,21.10
2022-09-15T01:07:34.304Z,21.10
2022-09-15T01:10:03.605Z,21.10
2022-09-15T01:12:30.456Z,21.10
2022-09-15T01:14:57.440Z,21.10
2022-09-15T01:17:46.312Z,21.10
2022-09-15T01:20:24.318Z,21.10
2022-09-15T01:23:23.446Z,21.10
2022-09-15T01:26:16.428Z,21.00
2022-09-15T01:28:51.901Z,21.00
2022-09-15T01:31:18.722Z,21.00
2022-09-15T01:33:45.536Z,21.10
2022-09-15T01:36:18.486Z,21.10
2022-09-15T01:39:02.915Z,21.10
2022-09-15T01:41:30.988Z,21.10
2022-09-15T01:44:07.730Z,21.00
2022-09-15T01:46:41.619Z,21.00
2022-09-15T01:49:10.081Z,21.00
2022-09-15T01:51:37.071Z,20.90
2022-09-15T01:54:04.512Z,20.80
2022-09-15T01:56:31.550Z,20.80
2022-09-15T01:58:59.856Z,20.70
2022-09-15T02:01:51.985Z,20.70
2022-09-15T02:04:42.344Z,20.70
2022-09-15T02:07:11.792Z,20.70
2022-09-15T02:09:40.764Z,20.70
2022-09-15T02:12:18.919Z,20.70
2022-09-15T02:15:03.620Z,20.70
2022-09-15T02:17:31.449Z,20.70
2022-09-15T02:20:03.336Z,20.70
2022-09-15T02:22:30.898Z,20.80
2022-09-15T02:25:03.751Z,20.80
2022-09-15T02:27:31.861Z,20.80
2022-09-15T02:29:59.967Z,20.70
2022-09-15T02:32:28.067Z,20.80
2022-09-15T02:34:55.504Z,20.90
2022-09-15T02:37:22.530Z,20.80
2022-09-15T02:39:53.132Z,20.80
2022-09-15T02:42:27.010Z,20.80
2022-09-15T02:44:54.022Z,20.80
2022-09-15T02:47:20.902Z,20.80
2022-09-15T02:49:49.014Z,20.80
2022-09-15T02:52:15.981Z,20.80
2022-09-15T02:54:42.874Z,20.80
2022-09-15T02:57:09.847Z,20.90
2022-09-15T02:59:55.190Z,20.80
2022-09-15T03:02:22.108Z,20.80
2022-09-15T03:04:49.646Z,20.80
2022-09-15T03:07:17.357Z,20.80
2022-09-15T03:09:45.732Z,20.80
2022-09-15T03:12:12.625Z,20.80
2022-09-15T03:14:39.486Z,20.80
2022-09-15T03:17:06.361Z,20.70
2022-09-15T03:19:33.281Z,20.70
2022-09-15T03:22:00.240Z,20.70
2022-09-15T03:24:27.193Z,20.70
2022-09-15T03:26:54.110Z,20.60
2022-09-15T03:29:20.939Z,20.50
2022-09-15T03:31:48.018Z,20.60
2022-09-15T03:34:14.962Z,20.50
2022-09-15T03:36:42.299Z,20.50
2022-09-15T03:39:11.206Z,20.50
2022-09-15T03:41:38.056Z,20.60
2022-09-15T03:44:06.083Z,20.50
2022-09-15T03:46:34.486Z,20.60
2022-09-15T03:49:01.491Z,20.60
2022-09-15T03:51:28.492Z,20.50
2022-09-15T03:53:55.430Z,20.50
2022-09-15T03:56:25.412Z,20.40
2022-09-15T03:58:53.557Z,20.30
2022-09-15T04:01:22.697Z,20.30
2022-09-15T04:03:51.417Z,20.20
2022-09-15T04:06:21.135Z,20.30
2022-09-15T04:08:48.681Z,20.20
2022-09-15T04:11:23.543Z,20.30
2022-09-15T04:13:50.474Z,20.30
2022-09-15T04:16:19.754Z,20.40
2022-09-15T04:18:46.851Z,20.40
2022-09-15T04:21:15.384Z,20.40
2022-09-15T04:23:42.629Z,20.40
2022-09-15T04:26:12.158Z,20.40
2022-09-15T04:28:39.122Z,20.40
2022-09-15T04:31:09.777Z,20.40
2022-09-15T04:33:36.955Z,20.50
2022-09-15T04:36:04.844Z,20.50
2022-09-15T04:38:32.795Z,20.50
2022-09-15T04:41:00.182Z,20.50
2022-09-15T04:43:27.905Z,20.50
2022-09-15T04:45:54.993Z,20.50
2022-09-15T04:48:23.779Z,20.50
2022-09-15T04:50:50.843Z,20.50
2022-09-15T04:53:18.597Z,20.60
2022-09-15T04:55:45.549Z,20.60
2022-09-15T04:58:12.467Z,20.70
2022-09-15T05:00:43.141Z,20.60
2022-09-15T05:03:13.544Z,20.60
2022-09-15T05:05:41.029Z,20.60
2022-09-15T05:08:08.773Z,20.60
2022-09-15T05:10:35.803Z,20.60
2022-09-15T05:13:06.577Z,20.70
2022-09-15T05:15:35.854Z,20.70
2022-09-15T05:18:02.737Z,20.80
2022-09-15T05:20:30.024Z,20.80
2022-09-15T05:22:56.869Z,20.80
2022-09-15T05:25:23.748Z,20.80
2022-09-15T05:27:50.852Z,20.80
2022-09-15T05:30:36.833Z,20.80
2022-09-15T05:33:05.804Z,20.70
2022-09-15T05:35:32.985Z,20.80
2022-09-15T05:37:59.978Z,20.90
2022-09-15T05:40:27.061Z,20.90
2022-09-15T05:42:54.034Z,21.00
2022-09-15T05:45:21.931Z,21.00
2022-09-15T05:47:48.886Z,21.10
2022-09-15T05:50:16.410Z,21.10
2022-09-15T05:52:43.385Z,21.10
2022-09-15T05:55:10.338Z,21.00
2022-09-15T05:57:37.767Z,21.00
2022-09-15T06:00:04.950Z,21.10
2022-09-15T06:02:32.000Z,21.10
2022-09-15T06:04:58.937Z,21.10
2022-09-15T06:07:25.827Z,21.20
2022-09-15T06:09:52.853Z,21.20
2022-09-15T06:12:19.874Z,21.30
2022-09-15T06:14:50.577Z,21.40
2022-09-15T06:17:17.724Z,21.50
2022-09-15T06:19:44.576Z,21.50
2022-09-15T06:22:11.736Z,21.60
2022-09-15T06:24:38.831Z,21.80
2022-09-15T06:27:05.647Z,21.90
2022-09-15T06:29:32.723Z,21.90
2022-09-15T06:32:02.958Z,22.10
2022-09-15T06:34:30.185Z,22.10
2022-09-15T06:36:57.264Z,22.20
2022-09-15T06:39:24.786Z,22.20
2022-09-15T06:42:06.081Z,22.30
2022-09-15T06:44:33.261Z,22.40
2022-09-15T06:47:00.647Z,22.40
2022-09-15T06:49:27.480Z,22.50
2022-09-15T06:51:54.389Z,22.60
2022-09-15T06:54:21.498Z,22.80
2022-09-15T06:56:48.419Z,23.10
2022-09-15T06:59:16.029Z,23.30
2022-09-15T07:01:43.233Z,23.50
2022-09-15T07:04:10.254Z,23.60
2022-09-15T07:06:38.764Z,23.70
2022-09-15T07:09:07.175Z,23.80
2022-09-15T07:11:34.273Z,23.80
2022-09-15T07:14:02.161Z,23.80
2022-09-15T07:16:29.083Z,23.80
2022-09-15T07:18:57.163Z,23.80
2022-09-15T07:21:24.214Z,23.80
2022-09-15T07:23:51.062Z,23.80
2022-09-15T07:26:18.723Z,23.70
2022-09-15T07:28:46.835Z,23.60
2022-09-15T07:31:14.759Z,23.60
2022-09-15T07:33:41.823Z,23.50
2022-09-15T07:36:08.811Z,23.50
2022-09-15T07:38:35.797Z,23.40
2022-09-15T07:41:06.038Z,23.40
2022-09-15T07:43:32.928Z,23.40
2022-09-15T07:46:00.396Z,23.40
2022-09-15T07:48:27.358Z,23.30
2022-09-15T07:50:54.492Z,23.30
2022-09-15T07:53:21.563Z,23.30
2022-09-15T07:55:58.676Z,23.30
2022-09-15T07:58:25.640Z,23.30
2022-09-15T08:00:52.660Z,23.20
2022-09-15T08:03:19.685Z,23.20
2022-09-15T08:05:46.697Z,23.20
2022-09-15T08:08:13.559Z,23.10
2022-09-15T08:10:41.509Z,23.20
2022-09-15T08:13:08.484Z,23.20
2022-09-15T08:15:36.544Z,23.20
2022-09-15T08:18:04.099Z,23.20
2022-09-15T08:20:31.723Z,23.30
2022-09-15T08:22:58.576Z,23.30
2022-09-15T08:25:25.428Z,23.30
2022-09-15T08:27:53.009Z,23.40
2022-09-15T08:33:17.726Z,23.50
2022-09-15T08:35:44.625Z,23.40
2022-09-15T08:38:11.506Z,23.40
2022-09-15T08:40:38.370Z,23.50
2022-09-15T08:43:06.605Z,23.60
2022-09-15T08:45:36.325Z,23.70
2022-09-15T08:48:03.781Z,23.90
2022-09-15T08:50:32.644Z,24.00
2022-09-15T08:53:07.045Z,24.20
2022-09-15T08:55:33.851Z,24.30
2022-09-15T08:58:00.778Z,24.40
2022-09-15T09:00:27.773Z,24.60
2022-09-15T09:02:54.783Z,25.00
2022-09-15T09:05:37.095Z,25.30
2022-09-15T09:08:16.108Z,25.70
2022-09-15T09:10:52.944Z,26.00
2022-09-15T09:13:35.405Z,26.10
2022-09-15T09:16:10.076Z,26.30
2022-09-15T09:18:53.113Z,26.20
2022-09-15T09:21:29.767Z,25.80
2022-09-15T09:24:05.391Z,25.40
2022-09-15T09:26:33.497Z,25.20
2022-09-15T09:29:01.320Z,25.20
2022-09-15T09:31:28.394Z,25.10
2022-09-15T09:34:04.367Z,25.00
2022-09-15T09:36:31.184Z,25.30
2022-09-15T09:38:58.817Z,26.20
2022-09-15T09:41:28.775Z,27.30
2022-09-15T09:43:55.932Z,28.20
2022-09-15T09:46:22.902Z,28.70
2022-09-15T09:48:53.537Z,28.70
2022-09-15T09:51:55.874Z,28.50
2022-09-15T09:54:25.217Z,28.20
2022-09-15T09:56:52.440Z,27.90
2022-09-15T09:59:31.394Z,27.90
2022-09-15T10:02:16.423Z,28.10
2022-09-15T10:04:47.567Z,28.50
2022-09-15T10:07:16.624Z,28.80
2022-09-15T10:09:50.750Z,29.00
2022-09-15T10:12:23.196Z,29.20
2022-09-15T10:14:52.631Z,29.20
2022-09-15T10:17:23.289Z,29.40
2022-09-15T10:19:54.422Z,31.00
2022-09-15T10:22:39.740Z,32.70
2022-09-15T10:25:39.462Z,32.70
2022-09-15T10:28:21.927Z,32.10
2022-09-15T10:31:46.623Z,31.40
2022-09-15T10:34:30.657Z,31.20
2022-09-15T10:37:11.578Z,32.00
2022-09-15T10:39:42.053Z,32.50
2022-09-15T10:42:09.052Z,33.90
2022-09-15T10:44:59.204Z,36.20
2022-09-15T10:47:46.431Z,38.20
2022-09-15T10:50:33.752Z,40.10
2022-09-15T10:53:10.951Z,41.10
2022-09-15T10:56:16.378Z,42.30
2022-09-15T10:58:55.972Z,43.40
2022-09-15T11:01:28.644Z,43.90
2022-09-15T11:04:12.865Z,44.20
2022-09-15T11:06:58.660Z,44.40
2022-09-15T11:09:27.030Z,44.80
2022-09-15T11:11:59.501Z,45.10
2022-09-15T11:14:26.327Z,45.30
2022-09-15T11:17:11.678Z,44.00
2022-09-15T11:19:57.020Z,42.40
2022-09-15T11:22:49.303Z,41.80
2022-09-15T11:25:26.652Z,42.10
2022-09-15T11:27:56.499Z,42.50
2022-09-15T11:30:30.000Z,41.50
2022-09-15T11:33:35.466Z,40.10
2022-09-15T11:36:22.260Z,38.40
2022-09-15T11:38:54.060Z,36.80
2022-09-15T11:41:21.390Z,35.60
2022-09-15T11:44:00.365Z,34.70
2022-09-15T11:46:31.570Z,34.10
2022-09-15T11:49:09.102Z,33.60
2022-09-15T11:51:38.265Z,33.30
2022-09-15T11:54:11.035Z,33.00
2022-09-15T11:56:40.934Z,32.80
2022-09-15T11:59:20.091Z,32.60
2022-09-15T12:01:49.773Z,32.40
2022-09-15T12:04:20.871Z,32.30
2022-09-15T12:06:55.782Z,32.20
2022-09-15T12:09:22.954Z,32.00
2022-09-15T12:11:54.746Z,31.90
2022-09-15T12:14:29.003Z,31.70
2022-09-15T12:16:56.070Z,31.40
2022-09-15T12:19:26.035Z,31.30
2022-09-15T12:22:01.457Z,31.10
2022-09-15T12:24:33.964Z,31.00
2022-09-15T12:27:04.271Z,31.00
2022-09-15T12:29:33.246Z,31.00
2022-09-15T12:32:14.921Z,31.00
2022-09-15T12:34:48.677Z,31.10
2022-09-15T12:37:15.630Z,31.10
2022-09-15T12:39:45.506Z,31.10
2022-09-15T12:42:13.111Z,31.10
2022-09-15T12:44:51.230Z,31.10
2022-09-15T12:48:02.309Z,31.70
2022-09-15T12:50:31.451Z,32.50
2022-09-15T12:53:12.733Z,33.00
2022-09-15T12:55:48.669Z,33.60
2022-09-15T12:58:16.515Z,34.60
2022-09-15T13:01:07.149Z,34.90
2022-09-15T13:06:25.912Z,34.50
2022-09-15T13:08:53.878Z,34.00
2022-09-15T13:11:25.723Z,33.50
2022-09-15T13:13:52.703Z,33.00
2022-09-15T13:16:26.263Z,32.70
2022-09-15T13:19:03.875Z,32.30
2022-09-15T13:21:30.868Z,32.20
2022-09-15T13:23:58.028Z,32.00
2022-09-15T13:26:25.717Z,32.00
2022-09-15T13:28:55.661Z,32.00
2022-09-15T13:31:34.589Z,32.00
2022-09-15T13:40:05.270Z,31.00
2022-09-15T13:42:32.632Z,30.60
2022-09-15T13:45:17.602Z,30.70
2022-09-15T13:47:45.220Z,30.60
2022-09-15T13:50:21.252Z,30.50
2022-09-15T13:52:48.388Z,30.70
2022-09-15T13:55:21.851Z,31.00
2022-09-15T14:01:07.904Z,30.90
2022-09-15T14:03:50.267Z,31.20
2022-09-15T14:06:21.350Z,32.10
2022-09-15T14:08:50.149Z,32.50
2022-09-15T14:11:17.362Z,32.50
2022-09-15T14:13:45.620Z,32.30
2022-09-15T14:16:25.566Z,32.00
2022-09-15T14:18:53.226Z,32.00
2022-09-15T14:21:21.138Z,32.00
2022-09-15T14:23:48.822Z,32.10
2022-09-15T14:26:16.095Z,32.10
2022-09-15T14:28:47.725Z,31.80
2022-09-15T14:31:14.618Z,31.60
2022-09-15T14:33:41.539Z,31.20
2022-09-15T14:36:34.843Z,30.90
2022-09-15T14:39:04.916Z,31.00
2022-09-15T14:41:32.171Z,31.00
2022-09-15T14:43:59.013Z,30.90
2022-09-15T14:46:26.519Z,30.60
2022-09-15T14:48:53.427Z,30.30
2022-09-15T14:51:24.142Z,30.20
2022-09-15T14:53:51.460Z,30.10
2022-09-15T14:56:19.520Z,29.90
2022-09-15T14:58:52.169Z,29.80
2022-09-15T15:01:26.299Z,29.90
2022-09-15T15:03:58.651Z,29.80
2022-09-15T15:06:33.426Z,29.90
2022-09-15T15:09:04.181Z,29.90
2022-09-15T15:11:31.324Z,29.80
2022-09-15T15:13:58.179Z,29.80
2022-09-15T15:16:28.668Z,29.70
2022-09-15T15:18:57.273Z,29.60
2022-09-15T15:21:27.852Z,29.40
2022-09-15T15:23:54.847Z,29.40
2022-09-15T15:26:28.645Z,29.30
2022-09-15T15:28:55.524Z,29.30
2022-09-15T15:31:23.909Z,29.30
2022-09-15T15:33:56.813Z,29.30
2022-09-15T15:36:24.140Z,29.40
2022-09-15T15:38:52.341Z,29.40
2022-09-15T15:41:20.205Z,29.50
2022-09-15T15:44:03.327Z,29.50
2022-09-15T15:46:49.353Z,29.60
2022-09-15T15:49:16.424Z,29.50
2022-09-15T15:51:43.403Z,29.60
2022-09-15T15:54:10.253Z,29.50
2022-09-15T15:56:37.991Z,29.40
2022-09-15T15:59:05.961Z,29.20
2022-09-15T16:01:33.260Z,28.90
2022-09-15T16:04:00.222Z,28.70
2022-09-15T16:06:27.197Z,28.50
2022-09-15T16:08:54.125Z,28.40
2022-09-15T16:11:21.200Z,28.30
2022-09-15T16:13:48.523Z,28.30
2022-09-15T16:16:16.807Z,28.30
2022-09-15T16:18:43.933Z,28.20
2022-09-15T16:21:28.133Z,28.20
2022-09-15T16:23:55.106Z,28.20
2022-09-15T16:26:23.330Z,28.10
2022-09-15T16:28:50.362Z,28.00
2022-09-15T16:31:17.343Z,28.00
2022-09-15T16:33:44.335Z,28.00
2022-09-15T16:36:12.606Z,28.00
2022-09-15T16:38:39.724Z,27.90
2022-09-15T16:41:10.685Z,27.80
2022-09-15T16:43:37.713Z,27.70
2022-09-15T16:46:06.139Z,27.60
2022-09-15T16:48:34.463Z,27.50
2022-09-15T16:51:20.891Z,27.50
2022-09-15T16:53:48.885Z,27.40
2022-09-15T16:56:15.943Z,27.30
2022-09-15T16:58:43.009Z,27.30
2022-09-15T17:01:17.298Z,27.20
2022-09-15T17:03:44.570Z,27.10
2022-09-15T17:06:14.726Z,27.10
2022-09-15T17:08:41.834Z,27.00
2022-09-15T17:11:16.699Z,26.90
2022-09-15T17:13:43.979Z,26.90
2022-09-15T17:16:11.285Z,26.80
2022-09-15T17:18:38.563Z,26.80
2022-09-15T17:21:05.734Z,26.70
2022-09-15T17:23:36.013Z,26.60
2022-09-15T17:26:04.363Z,26.50
2022-09-15T17:28:32.027Z,26.50
2022-09-15T17:30:59.681Z,26.40
2022-09-15T17:33:26.699Z,26.30
2022-09-15T17:35:53.614Z,26.30
2022-09-15T17:38:22.059Z,26.20
2022-09-15T17:40:49.838Z,26.20
2022-09-15T17:43:20.598Z,26.20
2022-09-15T17:45:47.906Z,26.20
2022-09-15T17:48:14.812Z,26.20
2022-09-15T17:50:42.175Z,26.10
2022-09-15T17:53:13.188Z,26.00
2022-09-15T17:55:40.226Z,25.90
2022-09-15T17:58:07.236Z,25.80
2022-09-15T18:00:35.845Z,25.80
2022-09-15T18:03:04.376Z,25.80
2022-09-15T18:05:35.100Z,25.60
2022-09-15T18:08:04.534Z,25.70
2022-09-15T18:10:32.147Z,25.60
2022-09-15T18:12:59.176Z,25.60
2022-09-15T18:15:27.192Z,25.70
2022-09-15T18:17:55.185Z,25.60
2022-09-15T18:20:22.951Z,25.60
2022-09-15T18:22:50.038Z,25.60
2022-09-15T18:25:20.080Z,25.50
2022-09-15T18:27:49.428Z,25.50
2022-09-15T18:30:16.842Z,25.40
2022-09-15T18:32:43.939Z,25.40
2022-09-15T18:35:13.251Z,25.30
2022-09-15T18:37:43.222Z,25.30
2022-09-15T18:40:10.941Z,25.30
2022-09-15T18:42:38.304Z,25.30
2022-09-15T18:45:05.841Z,25.20
2022-09-15T18:47:33.135Z,25.20
2022-09-15T18:50:01.086Z,25.20
2022-09-15T18:52:28.445Z,25.10
2022-09-15T18:54:59.930Z,25.10
2022-09-15T18:57:26.805Z,25.00
2022-09-15T18:59:53.685Z,25.00
2022-09-15T19:02:20.831Z,24.90
2022-09-15T19:04:48.101Z,24.90
2022-09-15T19:07:14.976Z,24.80
2022-09-15T19:09:42.137Z,24.80
2022-09-15T19:12:09.126Z,24.80
2022-09-15T19:14:36.082Z,24.70
2022-09-15T19:17:05.006Z,24.70
2022-09-15T19:19:35.196Z,24.70
2022-09-15T19:22:02.324Z,24.70
2022-09-15T19:24:33.833Z,24.70
2022-09-15T19:27:01.277Z,24.70
2022-09-15T19:29:35.160Z,24.70
2022-09-15T19:32:09.360Z,24.70
2022-09-15T19:34:37.240Z,24.60
2022-09-15T19:37:10.305Z,24.60
2022-09-15T19:39:39.122Z,24.60
2022-09-15T19:42:06.361Z,24.60
2022-09-15T19:44:33.351Z,24.60
2022-09-15T19:47:00.241Z,24.50
2022-09-15T19:49:27.313Z,24.50
2022-09-15T19:51:55.743Z,24.50
2022-09-15T19:54:26.411Z,24.50
2022-09-15T19:56:53.590Z,24.50
2022-09-15T19:59:21.032Z,24.50
2022-09-15T20:01:48.076Z,24.40
2022-09-15T20:06:59.406Z,24.20
2022-09-15T20:09:26.653Z,24.10
2022-09-15T20:11:53.483Z,24.00
2022-09-15T20:14:20.454Z,24.00
2022-09-15T20:16:47.535Z,24.00
2022-09-15T20:19:14.365Z,24.00
2022-09-15T20:21:56.858Z,24.00
2022-09-15T20:24:24.054Z,24.00
2022-09-15T20:26:52.283Z,24.00
2022-09-15T20:29:19.530Z,24.00
2022-09-15T20:31:46.478Z,23.90
2022-09-15T20:34:13.424Z,23.80
2022-09-15T20:36:40.357Z,23.70
2022-09-15T20:39:09.422Z,23.70
2022-09-15T20:41:36.417Z,23.80
2022-09-15T20:44:03.897Z,23.70
2022-09-15T20:46:31.544Z,23.70
2022-09-15T20:48:58.458Z,23.70
2022-09-15T20:51:26.094Z,23.70
2022-09-15T20:53:53.822Z,23.60
2022-09-15T20:56:23.334Z,23.50
2022-09-15T20:58:50.283Z,23.40
2022-09-15T21:01:18.766Z,23.50
2022-09-15T21:03:45.890Z,23.50
2022-09-15T21:06:13.726Z,23.50
2022-09-15T21:08:40.771Z,23.50
2022-09-15T21:11:09.895Z,23.40
2022-09-15T21:13:37.349Z,23.40
2022-09-15T21:16:06.142Z,23.40
2022-09-15T21:18:34.893Z,23.40
2022-09-15T21:21:22.085Z,23.40
2022-09-15T21:23:51.883Z,23.40
2022-09-15T21:26:23.064Z,23.40
2022-09-15T21:28:49.938Z,23.40
2022-09-15T21:31:17.598Z,23.30
2022-09-15T21:33:45.159Z,23.40
2022-09-15T21:36:17.631Z,23.20
2022-09-15T21:38:44.565Z,23.10
2022-09-15T21:41:13.820Z,23.10
2022-09-15T21:43:41.247Z,23.00
2022-09-15T21:46:09.867Z,23.00
2022-09-15T21:48:36.877Z,23.10
2022-09-15T21:51:04.149Z,23.10
2022-09-15T21:53:32.366Z,23.10
2022-09-15T21:56:03.650Z,23.10
2022-09-15T21:58:38.955Z,23.10
2022-09-15T22:01:09.524Z,23.10
2022-09-15T22:03:37.815Z,23.10
2022-09-15T22:06:04.745Z,23.10
2022-09-15T22:08:31.609Z,23.00
2022-09-15T22:10:59.082Z,23.10
2022-09-15T22:13:26.022Z,23.00
2022-09-15T22:15:52.880Z,23.00
2022-09-15T22:18:19.751Z,23.10
2022-09-15T22:20:46.644Z,23.00
2022-09-15T22:23:13.596Z,23.00
2022-09-15T22:25:40.435Z,22.90
2022-09-15T22:28:07.461Z,22.90
2022-09-15T22:30:34.281Z,22.90
2022-09-15T22:33:01.082Z,22.80
2022-09-15T22:35:27.900Z,22.80
2022-09-15T22:37:54.845Z,22.80
2022-09-15T22:40:21.743Z,22.80
2022-09-15T22:42:48.656Z,22.80
2022-09-15T22:45:15.588Z,22.80
2022-09-15T22:47:42.419Z,22.90
2022-09-15T22:50:09.372Z,22.90
2022-09-15T22:52:36.239Z,23.00
2022-09-15T22:55:03.313Z,23.00
2022-09-15T22:57:30.336Z,23.00
2022-09-15T22:59:57.224Z,23.00
2022-09-15T23:02:24.203Z,23.00
2022-09-15T23:04:51.393Z,23.00
2022-09-15T23:07:18.268Z,22.90
2022-09-15T23:09:45.075Z,22.90
2022-09-15T23:12:11.979Z,22.90
2022-09-15T23:14:38.809Z,22.80
2022-09-15T23:17:05.653Z,22.90
2022-09-15T23:19:32.484Z,22.80
2022-09-15T23:21:59.320Z,22.80
2022-09-15T23:24:26.303Z,22.70
2022-09-15T23:26:53.219Z,22.60
2022-09-15T23:29:20.406Z,22.60
2022-09-15T23:31:47.278Z,22.50
2022-09-15T23:34:14.809Z,22.50
2022-09-15T23:36:41.668Z,22.50
2022-09-15T23:39:08.698Z,22.60
2022-09-15T23:41:36.908Z,22.60
2022-09-15T23:44:03.925Z,22.60
2022-09-15T23:46:31.462Z,22.50
2022-09-15T23:48:58.380Z,22.50
2022-09-15T23:51:25.438Z,22.50
2022-09-15T23:53:52.438Z,22.40
2022-09-15T23:56:19.284Z,22.40
2022-09-15T23:58:46.100Z,22.40
